KLOR/LOR METAR and TAF weather

Enter ICAO airport designator
Station Type Date Time Source
KLOR METAR 2023/02/04 01:55 UTC NOAA

KLOR 040155Z AUTO 34005KT 10SM CLR 08/M05 A3040 RMK AO2 SLPNO T00821046


Station Type Date Time Source
KLOR Decoded METAR 2023/02/04 01:55 UTC NOAA

Fort Rucker, Lowe Army Heliport, AL, United States (KLOR) 31-21-32N 085-44-54W 93M
Feb 03, 2023 - 08:55 PM EST / 2023.02.04 0155 UTC
Wind: from the NNW (340 degrees) at 6 MPH (5 KT):0
Visibility: 10 mile(s):0
Sky conditions: clear
Temperature: 46.8 F (8.2 C)
Dew Point: 23.7 F (-4.6 C)
Relative Humidity: 39%
Pressure (altimeter): 30.4 in. Hg (1029 hPa)
ob: KLOR 040155Z AUTO 34005KT 10SM CLR 08/M05 A3040 RMK AO2 SLPNO T00821046
cycle: 2

Station Type Date Time Source
KLOR TAF UTC NOAA

Error!

Example: see airport list